WetterOnline ( https://www.wetteronline.de )

Wetter aktuell Cham

Aktuelles Wetter: Waldmünchen (499m)

6-stündlich | Neueste Meldungen
Ortszeit Temperatur Wetter
Fr, 19.07. 2:00 13.2° C bedeckt
Do, 18.07. 20:00 22.3° C bewölkt
Do, 18.07. 14:00 23.7° C leicht bewölkt
Do, 18.07. 8:00 14.9° C wolkenlos
Do, 18.07. 2:00 16.0° C wolkenlos
Mi, 17.07. 20:00 22.5° C leicht bewölkt
Mi, 17.07. 14:00 23.1° C wolkig
Mi, 17.07. 8:00 14.5° C leicht bewölkt
Ortszeit Temperatur Wetter
Fr, 19.07. 7:30 14.9° C wolkig
Fr, 19.07. 7:20 14.9° C wolkig
Fr, 19.07. 7:10 14.7° C wolkig
Fr, 19.07. 7:00 14.1° C bewölkt
Fr, 19.07. 6:50 14.1° C bewölkt
Fr, 19.07. 6:40 14.0° C wolkig
Fr, 19.07. 6:30 14.5° C bewölkt
Fr, 19.07. 6:00 13.4° C bedeckt
Fr, 19.07. 5:30 13.1° C bedeckt
Fr, 19.07. 5:00 12.9° C bedeckt
Fr, 19.07. 4:30 12.6° C bedeckt
Ortszeit Relative Feuchte Sichtweite
Fr, 19.07. 2:00 88% 14 km
Do, 18.07. 20:00 56% 30 km
Do, 18.07. 14:00 36% 19 km
Do, 18.07. 8:00 80% 12 km
Do, 18.07. 2:00 71% 23 km
Mi, 17.07. 20:00 42% 45 km
Mi, 17.07. 14:00 47% 30 km
Mi, 17.07. 8:00 77% 23 km
Ortszeit Relative Feuchte Sichtweite
Fr, 19.07. 7:30 86% 13 km
Fr, 19.07. 7:20 86% -
Fr, 19.07. 7:10 85% -
Fr, 19.07. 7:00 90% 11 km
Fr, 19.07. 6:50 90% -
Fr, 19.07. 6:40 87% -
Fr, 19.07. 6:30 82% 15 km
Fr, 19.07. 6:00 88% 8 km
Fr, 19.07. 5:30 91% 13 km
Fr, 19.07. 5:00 91% 11 km
Fr, 19.07. 4:30 89% 13 km
Ortszeit Niederschlagsmenge Niederschlagsart
Fr, 19.07. 2:00 0.0 l/m2 in 6 Std. -
Do, 18.07. 20:00 0.0 l/m2 in 12 Std. -
Do, 18.07. 14:00 0.0 l/m2 in 6 Std. -
Do, 18.07. 8:00 0.0 l/m2 in 12 Std. -
Do, 18.07. 2:00 0.0 l/m2 in 6 Std. -
Mi, 17.07. 20:00 0.1 l/m2 in 12 Std. Niederschlag
Mi, 17.07. 14:00 0.0 l/m2 in 6 Std. -
Mi, 17.07. 8:00 0.0 l/m2 in 12 Std. -
Ortszeit Niederschlagsmenge Niederschlagsart
Fr, 19.07. 7:30 0.0 l/m2 in 1 Std. -
Fr, 19.07. 7:20 keine Meldung -
Fr, 19.07. 7:10 keine Meldung -
Fr, 19.07. 7:00 0.0 l/m2 in 1 Std. -
Fr, 19.07. 6:50 keine Meldung -
Fr, 19.07. 6:40 keine Meldung -
Fr, 19.07. 6:30 0.0 l/m2 in 1 Std. -
Fr, 19.07. 6:00 0.0 l/m2 in 1 Std. -
Fr, 19.07. 5:30 0.0 l/m2 in 1 Std. -
Fr, 19.07. 5:00 0.0 l/m2 in 1 Std. -
Fr, 19.07. 4:30 0.0 l/m2 in 1 Std. -
Ortszeit Stärke Spitze Richtung
km/h Bft. km/h Grad Sektor
Fr, 19.07. 2:00 7 2 11 280° W
Do, 18.07. 20:00 4 1 32 90° O
Do, 18.07. 14:00 11 2 32 280° W
Do, 18.07. 8:00 2 1 26 260° W
Do, 18.07. 2:00 20 4 28 30° NO
Mi, 17.07. 20:00 11 2 24 320° NW
Mi, 17.07. 14:00 13 3 26 270° W
Mi, 17.07. 8:00 0 0 7 - -
Ortszeit Stärke Spitze Richtung
km/h Bft. km/h Grad Sektor
Fr, 19.07. 7:30 4 1 7 80° O
Fr, 19.07. 7:20 4 1 - 80° O
Fr, 19.07. 7:10 4 1 - 100° O
Fr, 19.07. 7:00 6 1 9 70° O
Fr, 19.07. 6:50 6 1 - 70° O
Fr, 19.07. 6:40 7 2 - 100° O
Fr, 19.07. 6:30 2 1 7 340° N
Fr, 19.07. 6:00 7 2 7 50° NO
Fr, 19.07. 5:30 2 1 6 310° NW
Fr, 19.07. 5:00 6 1 13 70° O
Fr, 19.07. 4:30 7 2 11 280° W
Ortszeit Untergrenze Bedeckung Gattung
total tief tief mittel hoch
Fr, 19.07. 2:00 4200 m 8/8 8/8 - - -
Do, 18.07. 20:00 2100 m 8/8 7/8 - - -
Do, 18.07. 14:00 2100 m 5/8 2/8 - - -
Do, 18.07. 8:00 - 0/8 0/8 - - -
Do, 18.07. 2:00 - 0/8 0/8 - - -
Mi, 17.07. 20:00 6900 m 5/8 3/8 - - -
Mi, 17.07. 14:00 6300 m 7/8 6/8 - - -
Mi, 17.07. 8:00 10500 m 5/8 0/8 - - -
Ortszeit Bedeckungsgrad in Achtel und Wolkenuntergrenze
Fr, 19.07. 7:30 1(2700m) 8(3900m) 8(5400m)
Fr, 19.07. 7:20 1(2700m) 8(3900m) 8(5400m)
Fr, 19.07. 7:10 3(2400m) 7(3300m) 7(3900m)
Fr, 19.07. 7:00 4(2100m) 7(2700m) 8(6000m)
Fr, 19.07. 6:50 4(2100m) 7(2700m) 8(6000m)
Fr, 19.07. 6:40 3(2100m) 8(3300m) 8(3900m)
Fr, 19.07. 6:30 7(2700m) 8(3300m)
Fr, 19.07. 6:00 8(2400m)
Fr, 19.07. 5:30 1(2100m) 8(2400m)
Fr, 19.07. 5:00 8(2700m)
Fr, 19.07. 4:30 4(3300m) 8(4500m) 8(5700m)
Ortszeit Luftdruck NN (hPa) Tendenz (hPa in 3 Std.)
Fr, 19.07. 2:00 1015 + 0,8
Do, 18.07. 20:00 1011 0,0
Do, 18.07. 14:00 1011 - 0,4
Do, 18.07. 8:00 1013 + 0,2
Do, 18.07. 2:00 1013 + 0,1
Mi, 17.07. 20:00 1011 - 0,5
Mi, 17.07. 14:00 1012 - 0,8
Mi, 17.07. 8:00 1015 - 0,3
Ortszeit Luftdruck NN (hPa) Tendenz (hPa in 3 Std.)
Fr, 19.07. 7:30 1016 + 0,3
Fr, 19.07. 7:20 1016 keine Meldung
Fr, 19.07. 7:10 1015 keine Meldung
Fr, 19.07. 7:00 1016 + 0,6
Fr, 19.07. 6:50 1016 keine Meldung
Fr, 19.07. 6:40 1016 keine Meldung
Fr, 19.07. 6:30 1016 + 0,7
Fr, 19.07. 6:00 1016 + 0,8
Fr, 19.07. 5:30 1016 + 0,9
Fr, 19.07. 5:00 1016 + 0,8
Fr, 19.07. 4:30 1016 + 0,8
Ortszeit Schneehöhe (cm)
Fr, 19.07. 2:00 -
Do, 18.07. 20:00 -
Do, 18.07. 14:00 -
Do, 18.07. 8:00 -
Do, 18.07. 2:00 -
Mi, 17.07. 20:00 -
Mi, 17.07. 14:00 -
Mi, 17.07. 8:00 -
Ortszeit Schneehöhe (cm)
Fr, 19.07. 7:30 -
Fr, 19.07. 7:20 -
Fr, 19.07. 7:10 -
Fr, 19.07. 7:00 -
Fr, 19.07. 6:50 -
Fr, 19.07. 6:40 -
Fr, 19.07. 6:30 -
Fr, 19.07. 6:00 -
Fr, 19.07. 5:30 -
Fr, 19.07. 5:00 -
Fr, 19.07. 4:30 -
Link zu dieser Seite / Seite empfehlen

Das Wetter in ...